Aérodrome :
LOGIN :

S'inscrire | Disclaimer

   EN    FR    IT 

 










Légende :    VFR   VFR Marginal   IFR   IFR Intensif   IFR Très Intensif
Visi : 
Plafond : 
>= 8 km
>= 3000ft
5 à 8 km
1000 à 3000 ft
1500m à 5 km
500 à 1000 ft
800 à 1500m
200 à 500 ft
< 800m
< 200 ft
Symboles :   Orages  Brouillard  Fortes neiges  Fortes précipitations  Vent > 20 kt
SIGMETs :   Divers  Orages  Givrage  Turbulence  Onde Orograph.  Cendres Volcan.






- Altitude de l'aérodrome : 220 ft
- Code IATA : CWL


EGFF - Cardiff Rhoose

DERNIER METAR :
  • 210150Z AUTO 36008KT 9999 NCD 10/07 Q1018

METARs EXPIRÉS :
  • 210120Z AUTO 01010KT 9999 SCT023 10/07 Q1017
  • 210050Z AUTO 01009KT 9999 FEW025 BKN032 10/07 Q1017
  • 210020Z AUTO 03009KT 9999 NCD 10/07 Q1017
  • 202350Z AUTO 03011KT 010V070 9999 SCT020 BKN031 10/07 Q1017
  • 202320Z AUTO 03009KT 9999 SCT020 SCT031 09/07 Q1017

TAF TAF EGFF
Valide du 21 à 00h jusqu'au 22 à 00h UTC


202301Z 2100/2124 01009KT 9999 FEW020 SCT035
PROB30
TEMPO 2100/2103 9000 -SHRA BKN014
PROB30
TEMPO 2122/2124 6000
ATIS : +44 1446 729 319



MET'MAP, la Météo Aéronautique d'un coup d'oeil ! - Copyright ORBIFLY Décembre 2007 - Disclaimer

ORBIFLY MET'MAP TEAM :

Programmation & Développement : Alexandra Zaïnal
Conception & Développement : Baudouin d'Aumeries
Co-Programmation & Développement : Marc-Olivier Méhu
Soutien technique & logistique : Manuel Goepfert

Contact : metmap@orbifly.com




SOURCES & CREDITS :

   NOAA